AirNav   Everest Fuels
 
 1637 users online  

41CA Silver Creek Ranch Airport
Forest Glen, California, USA

GOING TO FOREST GLEN?


FAA INFORMATION EFFECTIVE 04 NOVEMBER 2021

Location

FAA Identifier: 41CA
Lat/Long: 40-19-03.5280N 123-15-14.0890W
40-19.058800N 123-15.234817W
40.3176467,-123.2539136
(estimated)
Elevation: 2511 ft. / 765 m (estimated)
Variation: 17E (1985)
From city: 5 miles SE of FOREST GLEN, CA
Time zone: UTC -8 (UTC -7 during Daylight Saving Time)
Zip code: 96041

Airport Operations

Airport use: Private use. Permission required prior to landing
Activation date: 08/1981
Control tower: no
ARTCC: OAKLAND CENTER
FSS: RANCHO MURIETA FLIGHT SERVICE STATION
Attendance: UNATNDD
Wind indicator: yes
Segmented circle: no

Airport Services

Runway Information

Runway 13/31

Dimensions: 1500 x 50 ft. / 457 x 15 m
Surface: turf
RUNWAY 13  RUNWAY 31
Traffic pattern: leftleft

Airport Ownership and Management from official FAA records

Ownership: Privately-owned
Owner: JAN S OSTRAT
2361 MORRISON LANE
SUISUN, CA 94585
Phone (707) 864-5600
Manager: JAN S OSTRAT
2361 MORRISON LANE
SUISUN, CA 94585
Phone (707) 864-5600

Airport Operational Statistics

Aircraft based on the field: 1
Single engine airplanes: 1
    

Additional Remarks

CAUTION: MOUNTAINS SURROUND ARPT; LAND RWY 13 DEPART RWY 31.
FOR CD CTC OAKLAND ARTCC AT 510-745-3380.

Instrument Procedures

There are no published instrument procedures at 41CA.

Some nearby airports with instrument procedures:

KFOT - Rohnerville Airport (43 nm W)
KRDD - Redding Municipal Airport (45 nm E)
KRBL - Red Bluff Municipal Airport (47 nm E)
KEKA - Murray Field Airport (49 nm NW)
O28 - Ells Field-Willits Municipal Airport (52 nm S)
 
Loc | Ops | Rwys | IFR | FBO | Links
Com | Nav | Svcs | Stats | Notes
Area around 41CA (Silver Creek Ranch Airport)
 
Road maps at: MapQuest Bing Google
 
Aerial photo
No photo
 
Sectional chart

 
Airport distance calculator
Flying to Silver Creek Ranch Airport? Find the distance to fly.

From to 41CA

Sunrise and sunset
Times for 29-Nov-2021
 Local
(UTC-8)
 Zulu
(UTC)
Morning civil twilight06:4614:46
Sunrise07:1615:16
Sunset16:4700:47
Evening civil twilight17:1701:17

Current date and time
Zulu (UTC)  30-Nov-2021 00:28:26
Local (UTC-8)  29-Nov-2021 16:28:26
 
METAR
KRDD 
45nm E 
292353Z 00000KT 10SM CLR 22/10 A3010 RMK AO2 SLP191 T02220100 10239 20133 56015 $
KRBL 
47nm E 
292354Z AUTO 35004KT 10SM CLR 22/10 A3012 RMK AO2 SLP197 T02170100 10222 20139 55016
KO86 
47nm NE 
300010Z AUTO 00000KT 10SM CLR 09/07 A3022 RMK AO1
KFOT 
49nm NW 
300015Z AUTO 00000KT 10SM CLR 09/09 A3023 RMK AO1
TAF
KRDD 
45nm E 
291720Z 2918/3018 VRB04KT P6SM FEW250
KRBL 
47nm E 
291720Z 2918/3018 33006KT P6SM FEW250
NOTAMs
Click for the latest NOTAMs
NOTAMs are issued by the DoD/FAA and will open in a separate window not controlled by AirNav.

 

 
 

Would you like to see your business listed on this page?

 If your business provides an interesting product or service to pilots, flight crews, aircraft, or users of the Silver Creek Ranch Airport, you should consider listing it here.  To start the listing process, click on the button below
 
Add a business
 

Other Pages about Silver Creek Ranch Airport

Update a link
 
Copyright © AirNav, LLC. All rights reserved. Privacy Policy  Contact